Powhatan Point, Ohio
Current Conditions -  °F | °C
As of 6:53 AM on Saturday 25 Oct 2014 (Local Time) from KHLG Reporting Station
Few Clouds Few Clouds  
Wind Chill: 42°   Ceiling: Unl
Heat Index: 45°   Visibility: 10mi
Dew Point: 38°   Wind: 6mph
Humidity: 76%   Direction: 200°SSW
Pressure: 29.98"   Gusts: NA
Location:  39.86°N, 80.82°W
Report Text: KHLG 251053Z AUTO 20005KT 10SM FEW037 07/03 A2998 RMK AO2 SLP158 T00720033
Loading
Personal Weather Stations






























Interactive Weather Map
Tropical Storm Tracking
New forecast layout! Learn more

10-Day Weather Forecast

Advertisements
Track Severe Weather on mobile